Climatologie pour Saint-Brevin les Pins
Jour • Résumé pour avril 11, 2017 Système :  Métrique    Anglais   Mixte
« - 1 jour
+ 1 jour »
Jour Semaine Mois Année Personnalisé
  Maximum : Minimum : Moyenne :
Température sous abri : 17.9 °C 4.8 °C 11.1 °C
Point de rosée : 8.4 °C 4.2 °C 6.4 °C
Humidité : 97 % 47 % 76 %
Vitesse du vent : 20.9 km/h 0.0 km/h 4.6 km/h
Rafale : 24.1 km/h - -
Direction :- - ENE
Pression : 1028.7 hPa 1025.6 hPa -
Précipitations : 0.0 mm    
Historical Graphs
 
 
Tableau de données pour avril 11, 2017
Heure Tempé Pt rosée Pression Vent Vitesse Rafale Humidité Taux pluie (/hr) Soleil
00:00 9.1 °C 6.4 °C 1027.3 hPa NNE 4.8 km/h 17.7 km/h 83 % 0.0 mm 0 W/m2
00:10 8.9 °C 6.2 °C 1027.7 hPa NNE 9.7 km/h 12.9 km/h 83 % 0.0 mm 0 W/m2
00:15 8.8 °C 6.2 °C 1027.7 hPa NE 3.2 km/h 12.9 km/h 84 % 0.0 mm 0 W/m2
00:20 8.6 °C 6.1 °C 1027.7 hPa ENE 8.0 km/h 12.9 km/h 84 % 0.0 mm 0 W/m2
00:25 8.4 °C 5.8 °C 1027.7 hPa NNE 11.3 km/h 12.9 km/h 84 % 0.0 mm 0 W/m2
00:30 8.5 °C 6.1 °C 1027.7 hPa North 8.0 km/h 14.5 km/h 85 % 0.0 mm 0 W/m2
00:40 8.3 °C 6.0 °C 1027.3 hPa North 11.3 km/h 19.3 km/h 85 % 0.0 mm 0 W/m2
00:45 8.4 °C 6.0 °C 1027.3 hPa NE 3.2 km/h 14.5 km/h 85 % 0.0 mm 0 W/m2
00:50 8.4 °C 5.8 °C 1027.7 hPa NNE 3.2 km/h 14.5 km/h 84 % 0.0 mm 0 W/m2
00:55 8.2 °C 5.8 °C 1027.7 hPa North 1.6 km/h 14.5 km/h 85 % 0.0 mm 0 W/m2
01:00 7.9 °C 5.6 °C 1027.7 hPa North 8.0 km/h 14.5 km/h 85 % 0.0 mm 0 W/m2
01:05 7.9 °C 5.7 °C 1027.7 hPa NE 1.6 km/h 12.9 km/h 86 % 0.0 mm 0 W/m2
01:10 7.8 °C 5.6 °C 1027.3 hPa Calm   12.9 km/h 86 % 0.0 mm 0 W/m2
01:15 7.7 °C 5.6 °C 1027.3 hPa North 1.6 km/h 11.3 km/h 87 % 0.0 mm 0 W/m2
01:25 7.3 °C 5.5 °C 1027.3 hPa Calm   9.7 km/h 88 % 0.0 mm 0 W/m2
01:30 7.4 °C 5.5 °C 1027.3 hPa NE 8.0 km/h 9.7 km/h 88 % 0.0 mm 0 W/m2
01:35 7.3 °C 5.4 °C 1027.3 hPa North 4.8 km/h 9.7 km/h 88 % 0.0 mm 0 W/m2
01:40 7.1 °C 5.2 °C 1027.3 hPa NNE 4.8 km/h 9.7 km/h 88 % 0.0 mm 0 W/m2
01:45 6.9 °C 5.3 °C 1027.3 hPa Calm   9.7 km/h 89 % 0.0 mm 0 W/m2
01:50 6.8 °C 5.3 °C 1027.3 hPa NNE 3.2 km/h 8.0 km/h 90 % 0.0 mm 0 W/m2
01:55 6.8 °C 5.3 °C 1027.7 hPa NNE 6.4 km/h 8.0 km/h 90 % 0.0 mm 0 W/m2
02:00 6.8 °C 5.3 °C 1027.3 hPa North 6.4 km/h 9.7 km/h 90 % 0.0 mm 0 W/m2
02:10 6.8 °C 5.3 °C 1027.3 hPa NE 6.4 km/h 11.3 km/h 90 % 0.0 mm 0 W/m2
02:15 6.9 °C 5.4 °C 1027.3 hPa NE 3.2 km/h 11.3 km/h 90 % 0.0 mm 0 W/m2
02:20 6.9 °C 5.4 °C 1027.3 hPa ENE 1.6 km/h 11.3 km/h 90 % 0.0 mm 0 W/m2
02:25 6.8 °C 5.3 °C 1027.3 hPa NNE 4.8 km/h 9.7 km/h 90 % 0.0 mm 0 W/m2
02:30 6.7 °C 5.2 °C 1027.3 hPa NE 4.8 km/h 8.0 km/h 90 % 0.0 mm 0 W/m2
02:35 6.7 °C 5.3 °C 1027.3 hPa NNE 3.2 km/h 8.0 km/h 91 % 0.0 mm 0 W/m2
02:40 6.6 °C 5.2 °C 1027.3 hPa NNE 4.8 km/h 9.7 km/h 91 % 0.0 mm 0 W/m2
02:45 6.5 °C 5.1 °C 1027.3 hPa Calm   9.7 km/h 91 % 0.0 mm 0 W/m2
03:00 6.5 °C 5.3 °C 1027.3 hPa North 1.6 km/h 9.7 km/h 92 % 0.0 mm 0 W/m2
03:05 6.4 °C 5.1 °C 1027.3 hPa Calm   9.7 km/h 91 % 0.0 mm 0 W/m2
03:10 6.4 °C 5.0 °C 1027.3 hPa NNE 6.4 km/h 9.7 km/h 91 % 0.0 mm 0 W/m2
03:15 6.2 °C 5.0 °C 1027.3 hPa North 4.8 km/h 9.7 km/h 92 % 0.0 mm 0 W/m2
03:20 6.2 °C 5.0 °C 1027.3 hPa North 4.8 km/h 8.0 km/h 92 % 0.0 mm 0 W/m2
03:25 6.3 °C 5.1 °C 1027.3 hPa NNE 4.8 km/h 8.0 km/h 92 % 0.0 mm 0 W/m2
03:30 6.3 °C 5.1 °C 1027.3 hPa NNE 3.2 km/h 6.4 km/h 92 % 0.0 mm 0 W/m2
03:40 6.1 °C 5.1 °C 1027.3 hPa NNE 1.6 km/h 9.7 km/h 93 % 0.0 mm 0 W/m2
03:45 6.2 °C 5.2 °C 1027.3 hPa NNE 3.2 km/h 9.7 km/h 93 % 0.0 mm 0 W/m2
03:50 6.2 °C 5.2 °C 1027.0 hPa NE 3.2 km/h 14.5 km/h 93 % 0.0 mm 0 W/m2
03:55 6.2 °C 5.2 °C 1027.0 hPa NNW 8.0 km/h 14.5 km/h 93 % 0.0 mm 0 W/m2
04:00 6.3 °C 5.2 °C 1027.0 hPa North 6.4 km/h 11.3 km/h 93 % 0.0 mm 0 W/m2
04:05 6.3 °C 5.3 °C 1027.3 hPa NE 4.8 km/h 11.3 km/h 93 % 0.0 mm 0 W/m2
04:10 6.2 °C 5.2 °C 1027.3 hPa NNE 1.6 km/h 9.7 km/h 93 % 0.0 mm 0 W/m2
04:15 6.3 °C 5.2 °C 1027.3 hPa NE 4.8 km/h 9.7 km/h 93 % 0.0 mm 0 W/m2
04:25 6.3 °C 5.2 °C 1027.3 hPa NNE 1.6 km/h 12.9 km/h 93 % 0.0 mm 0 W/m2
04:30 6.3 °C 5.2 °C 1027.3 hPa NE 4.8 km/h 12.9 km/h 93 % 0.0 mm 0 W/m2
04:35 6.2 °C 5.2 °C 1027.3 hPa NNE 8.0 km/h 12.9 km/h 93 % 0.0 mm 0 W/m2
04:40 6.3 °C 5.2 °C 1027.3 hPa NE 8.0 km/h 12.9 km/h 93 % 0.0 mm 0 W/m2
04:45 6.3 °C 5.2 °C 1027.3 hPa ENE 6.4 km/h 14.5 km/h 93 % 0.0 mm 0 W/m2
04:50 6.2 °C 5.2 °C 1027.3 hPa Calm   14.5 km/h 93 % 0.0 mm 0 W/m2
04:55 6.2 °C 5.3 °C 1027.3 hPa NE 3.2 km/h 14.5 km/h 94 % 0.0 mm 0 W/m2
05:00 6.2 °C 5.3 °C 1027.3 hPa NNE 3.2 km/h 9.7 km/h 94 % 0.0 mm 0 W/m2
05:10 6.1 °C 5.0 °C 1027.3 hPa North 6.4 km/h 12.9 km/h 93 % 0.0 mm 0 W/m2
05:15 6.1 °C 5.2 °C 1027.3 hPa NE 3.2 km/h 12.9 km/h 94 % 0.0 mm 0 W/m2
05:20 5.9 °C 5.1 °C 1027.0 hPa NE 1.6 km/h 9.7 km/h 94 % 0.0 mm 0 W/m2
05:25 5.9 °C 5.1 °C 1027.0 hPa NE 6.4 km/h 11.3 km/h 94 % 0.0 mm 0 W/m2
05:30 5.9 °C 5.1 °C 1027.0 hPa NE 1.6 km/h 11.3 km/h 94 % 0.0 mm 0 W/m2
05:35 5.7 °C 4.8 °C 1027.0 hPa NE 1.6 km/h 8.0 km/h 94 % 0.0 mm 0 W/m2
05:40 5.7 °C 4.8 °C 1027.0 hPa Calm   8.0 km/h 94 % 0.0 mm 0 W/m2
05:45 5.6 °C 4.7 °C 1027.0 hPa Calm   8.0 km/h 94 % 0.0 mm 0 W/m2
05:55 5.3 °C 4.4 °C 1027.0 hPa Calm   4.8 km/h 94 % 0.0 mm 0 W/m2
06:00 5.3 °C 4.5 °C 1026.6 hPa Calm   4.8 km/h 95 % 0.0 mm 0 W/m2
06:05 5.2 °C 4.5 °C 1026.6 hPa Calm   4.8 km/h 95 % 0.0 mm 0 W/m2
06:10 5.1 °C 4.3 °C 1026.6 hPa NE 1.6 km/h 6.4 km/h 95 % 0.0 mm 0 W/m2
06:15 5.0 °C 4.3 °C 1026.6 hPa NE 3.2 km/h 6.4 km/h 95 % 0.0 mm 0 W/m2
06:20 5.2 °C 4.5 °C 1026.6 hPa Calm   4.8 km/h 95 % 0.0 mm 0 W/m2
06:25 5.1 °C 4.3 °C 1026.6 hPa Calm   6.4 km/h 95 % 0.0 mm 0 W/m2
06:30 4.9 °C 4.2 °C 1026.6 hPa Calm   6.4 km/h 95 % 0.0 mm 0 W/m2
06:35 4.9 °C 4.2 °C 1027.0 hPa Calm   4.8 km/h 95 % 0.0 mm 0 W/m2
06:40 4.9 °C 4.2 °C 1027.0 hPa NE 1.6 km/h 4.8 km/h 95 % 0.0 mm 0 W/m2
06:45 5.0 °C 4.3 °C 1027.0 hPa Calm   4.8 km/h 95 % 0.0 mm 0 W/m2
06:50 4.9 °C 4.2 °C 1027.0 hPa Calm   4.8 km/h 95 % 0.0 mm 0 W/m2
06:55 4.9 °C 4.3 °C 1027.0 hPa Calm   4.8 km/h 96 % 0.0 mm 0 W/m2
07:00 4.9 °C 4.4 °C 1027.0 hPa Calm   4.8 km/h 96 % 0.0 mm 0 W/m2
07:05 5.0 °C 4.4 °C 1027.0 hPa NE 1.6 km/h 4.8 km/h 96 % 0.0 mm 0 W/m2
07:10 4.9 °C 4.4 °C 1027.0 hPa Calm   4.8 km/h 96 % 0.0 mm 0 W/m2
07:15 4.9 °C 4.4 °C 1027.0 hPa Calm   3.2 km/h 96 % 0.0 mm 0 W/m2
07:25 4.8 °C 4.2 °C 1027.0 hPa Calm   4.8 km/h 96 % 0.0 mm 0 W/m2
07:30 5.0 °C 4.4 °C 1027.0 hPa Calm   4.8 km/h 96 % 0.0 mm 0 W/m2
07:35 4.8 °C 4.2 °C 1027.0 hPa NNE 1.6 km/h 4.8 km/h 96 % 0.0 mm 5 W/m2
07:40 4.9 °C 4.4 °C 1027.3 hPa Calm   6.4 km/h 96 % 0.0 mm 9 W/m2
07:45 5.0 °C 4.4 °C 1027.3 hPa NNE 1.6 km/h 6.4 km/h 96 % 0.0 mm 16 W/m2
07:50 5.1 °C 4.5 °C 1027.3 hPa ENE 3.2 km/h 6.4 km/h 96 % 0.0 mm 25 W/m2
07:55 5.4 °C 5.0 °C 1027.3 hPa Calm   6.4 km/h 97 % 0.0 mm 33 W/m2
08:00 5.7 °C 5.1 °C 1027.3 hPa ENE 1.6 km/h 4.8 km/h 96 % 0.0 mm 40 W/m2
08:05 5.9 °C 5.4 °C 1027.3 hPa Calm   6.4 km/h 96 % 0.0 mm 53 W/m2
08:10 6.2 °C 5.7 °C 1027.3 hPa Calm   6.4 km/h 97 % 0.0 mm 58 W/m2
08:15 6.4 °C 5.9 °C 1027.3 hPa NE 1.6 km/h 6.4 km/h 97 % 0.0 mm 54 W/m2
08:20 6.5 °C 5.9 °C 1027.3 hPa NNE 1.6 km/h 8.0 km/h 96 % 0.0 mm 49 W/m2
08:25 6.6 °C 6.0 °C 1027.3 hPa Calm   8.0 km/h 96 % 0.0 mm 62 W/m2
08:30 6.7 °C 6.1 °C 1027.7 hPa NNE 1.6 km/h 8.0 km/h 96 % 0.0 mm 90 W/m2
08:35 6.8 °C 6.2 °C 1027.7 hPa NNE 1.6 km/h 8.0 km/h 96 % 0.0 mm 46 W/m2
08:40 6.7 °C 6.1 °C 1027.7 hPa NE 4.8 km/h 9.7 km/h 96 % 0.0 mm 53 W/m2
08:45 6.8 °C 6.2 °C 1027.7 hPa NNE 3.2 km/h 9.7 km/h 96 % 0.0 mm 67 W/m2
08:55 6.9 °C 6.4 °C 1028.0 hPa NE 9.7 km/h 11.3 km/h 96 % 0.0 mm 98 W/m2
09:00 7.1 °C 6.5 °C 1028.0 hPa NE 6.4 km/h 11.3 km/h 96 % 0.0 mm 93 W/m2
09:05 7.3 °C 6.7 °C 1028.0 hPa NE 4.8 km/h 11.3 km/h 96 % 0.0 mm 127 W/m2
09:10 7.5 °C 6.8 °C 1028.0 hPa NNE 8.0 km/h 11.3 km/h 95 % 0.0 mm 97 W/m2
09:15 7.6 °C 6.9 °C 1028.3 hPa NE 9.7 km/h 11.3 km/h 95 % 0.0 mm 114 W/m2
09:20 7.7 °C 7.0 °C 1028.3 hPa Calm   11.3 km/h 95 % 0.0 mm 118 W/m2
09:25 7.7 °C 6.8 °C 1028.3 hPa NNE 3.2 km/h 16.1 km/h 94 % 0.0 mm 142 W/m2
09:30 7.9 °C 7.0 °C 1028.3 hPa ENE 1.6 km/h 16.1 km/h 94 % 0.0 mm 146 W/m2
09:40 8.3 °C 7.1 °C 1028.3 hPa ENE 4.8 km/h 12.9 km/h 92 % 0.0 mm 294 W/m2
09:45 8.7 °C 7.1 °C 1028.3 hPa ENE 11.3 km/h 16.1 km/h 90 % 0.0 mm 272 W/m2
09:50 8.8 °C 7.1 °C 1028.3 hPa NE 4.8 km/h 19.3 km/h 89 % 0.0 mm 185 W/m2
09:55 8.7 °C 6.7 °C 1028.3 hPa NNE 16.1 km/h 19.3 km/h 87 % 0.0 mm 149 W/m2
10:00 9.0 °C 7.1 °C 1028.3 hPa ENE 6.4 km/h 19.3 km/h 88 % 0.0 mm 396 W/m2
10:05 9.3 °C 7.2 °C 1028.3 hPa NNE 9.7 km/h 17.7 km/h 87 % 0.0 mm 244 W/m2
10:10 9.1 °C 6.7 °C 1028.3 hPa ENE 9.7 km/h 16.1 km/h 85 % 0.0 mm 209 W/m2
10:15 9.1 °C 6.7 °C 1028.3 hPa ENE 16.1 km/h 16.1 km/h 85 % 0.0 mm 251 W/m2
10:20 9.2 °C 6.8 °C 1028.3 hPa ENE 4.8 km/h 16.1 km/h 85 % 0.0 mm 297 W/m2
10:25 9.4 °C 6.6 °C 1028.3 hPa East 9.7 km/h 16.1 km/h 83 % 0.0 mm 292 W/m2
10:30 9.7 °C 6.9 °C 1028.3 hPa East 9.7 km/h 16.1 km/h 83 % 0.0 mm 490 W/m2
10:35 10.4 °C 7.5 °C 1028.7 hPa ENE 3.2 km/h 16.1 km/h 82 % 0.0 mm 378 W/m2
10:40 10.7 °C 7.5 °C 1028.7 hPa East 6.4 km/h 16.1 km/h 81 % 0.0 mm 512 W/m2
10:45 11.1 °C 7.6 °C 1028.7 hPa ENE 8.0 km/h 16.1 km/h 79 % 0.0 mm 499 W/m2
10:50 11.3 °C 7.4 °C 1028.7 hPa NE 3.2 km/h 16.1 km/h 77 % 0.0 mm 497 W/m2
10:55 11.7 °C 7.6 °C 1028.7 hPa NE 4.8 km/h 17.7 km/h 76 % 0.0 mm 540 W/m2
11:00 11.9 °C 7.6 °C 1028.7 hPa ESE 9.7 km/h 17.7 km/h 75 % 0.0 mm 489 W/m2
11:10 12.2 °C 7.9 °C 1028.7 hPa East 11.3 km/h 16.1 km/h 75 % 0.0 mm 587 W/m2
11:15 12.6 °C 7.8 °C 1028.7 hPa East 4.8 km/h 16.1 km/h 73 % 0.0 mm 580 W/m2
11:20 12.8 °C 8.1 °C 1028.7 hPa NE 3.2 km/h 14.5 km/h 73 % 0.0 mm 603 W/m2
11:25 13.0 °C 7.2 °C 1028.7 hPa NE 8.0 km/h 17.7 km/h 68 % 0.0 mm 596 W/m2
11:30 12.8 °C 7.5 °C 1028.7 hPa East 1.6 km/h 17.7 km/h 70 % 0.0 mm 610 W/m2
11:35 13.2 °C 8.2 °C 1028.7 hPa ENE 12.9 km/h 14.5 km/h 72 % 0.0 mm 621 W/m2
11:40 13.3 °C 7.1 °C 1028.7 hPa ENE 20.9 km/h 20.9 km/h 66 % 0.0 mm 598 W/m2
11:45 13.3 °C 6.8 °C 1028.7 hPa ENE 6.4 km/h 22.5 km/h 65 % 0.0 mm 659 W/m2
11:50 13.4 °C 7.4 °C 1028.7 hPa East 8.0 km/h 22.5 km/h 67 % 0.0 mm 654 W/m2
11:55 13.7 °C 7.3 °C 1028.7 hPa SE 3.2 km/h 14.5 km/h 65 % 0.0 mm 689 W/m2
12:00 13.7 °C 7.5 °C 1028.7 hPa ENE 11.3 km/h 16.1 km/h 66 % 0.0 mm 647 W/m2
12:05 13.8 °C 7.1 °C 1028.7 hPa ENE 6.4 km/h 17.7 km/h 64 % 0.0 mm 682 W/m2
12:10 13.9 °C 6.7 °C 1028.7 hPa East 16.1 km/h 17.7 km/h 62 % 0.0 mm 675 W/m2
12:15 13.9 °C 7.2 °C 1028.7 hPa SE 11.3 km/h 17.7 km/h 64 % 0.0 mm 693 W/m2
12:20 14.2 °C 7.0 °C 1028.7 hPa ENE 8.0 km/h 19.3 km/h 62 % 0.0 mm 693 W/m2
12:25 14.4 °C 7.2 °C 1028.7 hPa ESE 14.5 km/h 19.3 km/h 62 % 0.0 mm 701 W/m2
12:30 14.6 °C 7.4 °C 1028.7 hPa ESE 14.5 km/h 16.1 km/h 62 % 0.0 mm 735 W/m2
12:40 14.8 °C 6.9 °C 1028.7 hPa ENE 8.0 km/h 22.5 km/h 59 % 0.0 mm 744 W/m2
12:45 15.1 °C 7.2 °C 1028.7 hPa ENE 6.4 km/h 19.3 km/h 59 % 0.0 mm 754 W/m2
12:50 15.7 °C 6.9 °C 1028.3 hPa East 4.8 km/h 17.7 km/h 56 % 0.0 mm 756 W/m2
12:55 15.8 °C 7.6 °C 1028.3 hPa SE 11.3 km/h 17.7 km/h 58 % 0.0 mm 772 W/m2
13:00 16.3 °C 7.2 °C 1028.3 hPa ENE 3.2 km/h 19.3 km/h 55 % 0.0 mm 754 W/m2
13:05 15.8 °C 6.8 °C 1028.3 hPa NE 4.8 km/h 20.9 km/h 55 % 0.0 mm 773 W/m2
13:10 16.3 °C 6.4 °C 1028.3 hPa ESE 11.3 km/h 20.9 km/h 52 % 0.0 mm 782 W/m2
13:15 16.2 °C 6.6 °C 1028.3 hPa East 14.5 km/h 19.3 km/h 53 % 0.0 mm 759 W/m2
13:25 15.7 °C 6.6 °C 1028.3 hPa SSE 4.8 km/h 24.1 km/h 55 % 0.0 mm 712 W/m2
13:30 16.3 °C 7.5 °C 1028.0 hPa ENE 11.3 km/h 17.7 km/h 56 % 0.0 mm 745 W/m2
13:35 15.9 °C 6.3 °C 1028.0 hPa East 12.9 km/h 22.5 km/h 53 % 0.0 mm 759 W/m2
13:40 15.9 °C 6.9 °C 1028.0 hPa East 14.5 km/h 22.5 km/h 55 % 0.0 mm 773 W/m2
13:45 16.6 °C 6.9 °C 1028.0 hPa East 8.0 km/h 22.5 km/h 53 % 0.0 mm 777 W/m2
13:50 16.5 °C 6.6 °C 1028.0 hPa ESE 4.8 km/h 16.1 km/h 52 % 0.0 mm 791 W/m2
13:55 17.0 °C 8.4 °C 1028.0 hPa East 4.8 km/h 19.3 km/h 57 % 0.0 mm 777 W/m2
14:00 16.9 °C 7.0 °C 1028.0 hPa East 12.9 km/h 20.9 km/h 52 % 0.0 mm 770 W/m2
14:10 16.8 °C 7.4 °C 1028.0 hPa NE 6.4 km/h 24.1 km/h 54 % 0.0 mm 803 W/m2
14:15 16.6 °C 7.3 °C 1028.0 hPa East 9.7 km/h 17.7 km/h 54 % 0.0 mm 800 W/m2
14:20 16.7 °C 7.1 °C 1028.0 hPa East 14.5 km/h 17.7 km/h 53 % 0.0 mm 788 W/m2
14:25 17.1 °C 8.0 °C 1027.7 hPa ESE 4.8 km/h 14.5 km/h 55 % 0.0 mm 798 W/m2
14:30 17.0 °C 7.1 °C 1027.7 hPa East 12.9 km/h 17.7 km/h 52 % 0.0 mm 791 W/m2
14:35 17.1 °C 8.0 °C 1027.7 hPa ESE 11.3 km/h 17.7 km/h 55 % 0.0 mm 816 W/m2
14:40 16.9 °C 7.3 °C 1027.7 hPa East 12.9 km/h 20.9 km/h 53 % 0.0 mm 786 W/m2
14:45 16.9 °C 7.0 °C 1027.7 hPa North 6.4 km/h 20.9 km/h 52 % 0.0 mm 795 W/m2
14:55 17.2 °C 6.4 °C 1027.7 hPa East 11.3 km/h 20.9 km/h 49 % 0.0 mm 759 W/m2
15:00 16.8 °C 6.0 °C 1027.7 hPa SSE 11.3 km/h 20.9 km/h 49 % 0.0 mm 729 W/m2
15:05 17.1 °C 7.7 °C 1027.7 hPa East 11.3 km/h 16.1 km/h 54 % 0.0 mm 731 W/m2
15:10 17.6 °C 7.0 °C 1027.7 hPa East 8.0 km/h 16.1 km/h 50 % 0.0 mm 740 W/m2
15:15 17.3 °C 6.8 °C 1027.7 hPa ENE 14.5 km/h 16.1 km/h 50 % 0.0 mm 738 W/m2
15:20 17.4 °C 6.6 °C 1027.7 hPa East 9.7 km/h 17.7 km/h 49 % 0.0 mm 745 W/m2
15:25 17.3 °C 6.8 °C 1027.3 hPa ESE 8.0 km/h 17.7 km/h 50 % 0.0 mm 744 W/m2
15:30 17.3 °C 6.5 °C 1027.3 hPa ENE 1.6 km/h 17.7 km/h 49 % 0.0 mm 752 W/m2
15:40 17.2 °C 6.6 °C 1027.3 hPa ESE 6.4 km/h 14.5 km/h 50 % 0.0 mm 671 W/m2
15:45 17.8 °C 7.8 °C 1027.3 hPa NE 1.6 km/h 17.7 km/h 52 % 0.0 mm 682 W/m2
15:50 17.8 °C 7.2 °C 1027.3 hPa ESE 8.0 km/h 17.7 km/h 50 % 0.0 mm 726 W/m2
15:55 17.8 °C 7.5 °C 1027.3 hPa NNE 3.2 km/h 17.7 km/h 51 % 0.0 mm 714 W/m2
16:00 17.6 °C 6.1 °C 1027.3 hPa ENE 1.6 km/h 17.7 km/h 47 % 0.0 mm 677 W/m2
16:05 17.8 °C 7.8 °C 1027.3 hPa ENE 3.2 km/h 17.7 km/h 52 % 0.0 mm 687 W/m2
16:10 17.7 °C 7.4 °C 1027.0 hPa NNE 4.8 km/h 14.5 km/h 51 % 0.0 mm 677 W/m2
16:15 17.9 °C 8.2 °C 1027.0 hPa ENE 6.4 km/h 14.5 km/h 53 % 0.0 mm 675 W/m2
16:20 17.6 °C 7.3 °C 1027.0 hPa ESE 6.4 km/h 12.9 km/h 51 % 0.0 mm 601 W/m2
16:25 17.6 °C 7.0 °C 1027.0 hPa NNE 3.2 km/h 19.3 km/h 50 % 0.0 mm 606 W/m2
16:30 17.6 °C 6.8 °C 1027.0 hPa NE 8.0 km/h 22.5 km/h 49 % 0.0 mm 598 W/m2
16:35 17.4 °C 6.0 °C 1027.0 hPa ESE 3.2 km/h 22.5 km/h 47 % 0.0 mm 603 W/m2
16:40 17.6 °C 7.1 °C 1027.0 hPa North 3.2 km/h 16.1 km/h 50 % 0.0 mm 608 W/m2
16:45 17.8 °C 7.8 °C 1026.6 hPa NNE 4.8 km/h 14.5 km/h 52 % 0.0 mm 587 W/m2
16:50 17.9 °C 6.8 °C 1027.0 hPa NE 4.8 km/h 14.5 km/h 48 % 0.0 mm 585 W/m2
16:55 17.9 °C 7.3 °C 1026.6 hPa NNE 3.2 km/h 14.5 km/h 50 % 0.0 mm 566 W/m2
17:00 17.6 °C 6.5 °C 1026.6 hPa ENE 4.8 km/h 14.5 km/h 48 % 0.0 mm 557 W/m2
17:05 17.7 °C 7.2 °C 1026.6 hPa NE 4.8 km/h 14.5 km/h 50 % 0.0 mm 522 W/m2
17:10 17.4 °C 6.3 °C 1026.6 hPa ESE 9.7 km/h 14.5 km/h 48 % 0.0 mm 541 W/m2
17:15 17.8 °C 7.6 °C 1026.6 hPa NE 9.7 km/h 12.9 km/h 51 % 0.0 mm 520 W/m2
17:20 17.6 °C 7.0 °C 1026.6 hPa Calm   12.9 km/h 50 % 0.0 mm 489 W/m2
17:25 17.4 °C 6.9 °C 1026.6 hPa North 4.8 km/h 12.9 km/h 50 % 0.0 mm 490 W/m2
17:30 17.8 °C 7.8 °C 1026.6 hPa ENE 3.2 km/h 12.9 km/h 52 % 0.0 mm 466 W/m2
17:40 17.4 °C 7.1 °C 1026.3 hPa NNW 6.4 km/h 16.1 km/h 51 % 0.0 mm 427 W/m2
17:45 17.3 °C 6.8 °C 1026.3 hPa NE 3.2 km/h 12.9 km/h 50 % 0.0 mm 345 W/m2
17:50 17.3 °C 7.4 °C 1026.3 hPa East 9.7 km/h 16.1 km/h 52 % 0.0 mm 420 W/m2
17:55 17.2 °C 6.9 °C 1026.3 hPa NE 4.8 km/h 16.1 km/h 51 % 0.0 mm 432 W/m2
18:00 17.2 °C 6.7 °C 1026.3 hPa NE 6.4 km/h 11.3 km/h 50 % 0.0 mm 380 W/m2
18:05 17.2 °C 6.4 °C 1026.3 hPa NE 4.8 km/h 11.3 km/h 49 % 0.0 mm 420 W/m2
18:10 17.4 °C 6.9 °C 1026.3 hPa East 4.8 km/h 14.5 km/h 50 % 0.0 mm 378 W/m2
18:15 17.3 °C 6.2 °C 1026.3 hPa East 3.2 km/h 16.1 km/h 48 % 0.0 mm 357 W/m2
18:25 17.2 °C 6.7 °C 1026.3 hPa East 4.8 km/h 14.5 km/h 50 % 0.0 mm 302 W/m2
18:30 17.2 °C 7.5 °C 1026.0 hPa ENE 6.4 km/h 14.5 km/h 53 % 0.0 mm 294 W/m2
18:40 17.3 °C 7.9 °C 1026.0 hPa NE 3.2 km/h 9.7 km/h 54 % 0.0 mm 271 W/m2
18:45 17.0 °C 7.3 °C 1026.3 hPa ENE 11.3 km/h 12.9 km/h 53 % 0.0 mm 253 W/m2
18:50 16.9 °C 7.0 °C 1026.3 hPa NE 4.8 km/h 12.9 km/h 52 % 0.0 mm 137 W/m2
18:55 16.7 °C 7.4 °C 1026.3 hPa ENE 4.8 km/h 11.3 km/h 54 % 0.0 mm 186 W/m2
19:00 16.7 °C 7.3 °C 1026.0 hPa NE 6.4 km/h 12.9 km/h 54 % 0.0 mm 156 W/m2
19:05 16.6 °C 7.0 °C 1026.3 hPa NNE 9.7 km/h 12.9 km/h 53 % 0.0 mm 192 W/m2
19:10 16.4 °C 7.1 °C 1026.0 hPa NNE 1.6 km/h 11.3 km/h 54 % 0.0 mm 176 W/m2
19:15 16.2 °C 7.7 °C 1026.0 hPa NNE 1.6 km/h 11.3 km/h 57 % 0.0 mm 91 W/m2
19:20 16.2 °C 7.1 °C 1026.0 hPa North 1.6 km/h 11.3 km/h 55 % 0.0 mm 118 W/m2
19:25 16.2 °C 6.8 °C 1026.0 hPa East 8.0 km/h 14.5 km/h 54 % 0.0 mm 84 W/m2
19:30 16.1 °C 7.1 °C 1026.0 hPa NE 6.4 km/h 14.5 km/h 55 % 0.0 mm 79 W/m2
19:35 15.9 °C 7.2 °C 1026.0 hPa East 4.8 km/h 11.3 km/h 56 % 0.0 mm 72 W/m2
19:40 15.9 °C 7.4 °C 1026.0 hPa NE 6.4 km/h 12.9 km/h 57 % 0.0 mm 65 W/m2
19:45 15.8 °C 7.3 °C 1026.0 hPa NE 3.2 km/h 12.9 km/h 57 % 0.0 mm 63 W/m2
19:50 15.6 °C 7.6 °C 1026.0 hPa NE 6.4 km/h 11.3 km/h 59 % 0.0 mm 62 W/m2
19:55 15.4 °C 7.0 °C 1026.0 hPa NNE 3.2 km/h 12.9 km/h 57 % 0.0 mm 56 W/m2
20:00 15.3 °C 7.1 °C 1026.0 hPa Calm   12.9 km/h 58 % 0.0 mm 46 W/m2
20:10 14.8 °C 7.4 °C 1026.0 hPa North 6.4 km/h 9.7 km/h 61 % 0.0 mm 39 W/m2
20:15 14.3 °C 7.4 °C 1026.0 hPa Calm   9.7 km/h 63 % 0.0 mm 35 W/m2
20:20 14.2 °C 7.3 °C 1026.0 hPa Calm   8.0 km/h 63 % 0.0 mm 30 W/m2
20:25 14.0 °C 7.5 °C 1026.0 hPa NE 1.6 km/h 6.4 km/h 65 % 0.0 mm 23 W/m2
20:30 13.7 °C 7.4 °C 1026.0 hPa NE 3.2 km/h 4.8 km/h 66 % 0.0 mm 19 W/m2
20:35 13.3 °C 7.3 °C 1026.0 hPa NE 1.6 km/h 4.8 km/h 67 % 0.0 mm 14 W/m2
20:40 13.0 °C 7.2 °C 1026.0 hPa Calm   4.8 km/h 68 % 0.0 mm 9 W/m2
20:45 12.7 °C 7.1 °C 1026.0 hPa Calm   1.6 km/h 69 % 0.0 mm 5 W/m2
20:55 12.3 °C 7.0 °C 1026.0 hPa Calm   1.6 km/h 70 % 0.0 mm 0 W/m2
21:00 12.0 °C 7.1 °C 1026.0 hPa Calm   1.6 km/h 72 % 0.0 mm 0 W/m2
21:05 11.7 °C 7.0 °C 1026.0 hPa Calm   1.6 km/h 73 % 0.0 mm 0 W/m2
21:10 11.7 °C 7.0 °C 1026.0 hPa Calm   1.6 km/h 73 % 0.0 mm 0 W/m2
21:15 11.3 °C 7.1 °C 1025.6 hPa Calm   1.6 km/h 75 % 0.0 mm 0 W/m2
21:20 11.1 °C 7.0 °C 1026.0 hPa Calm   3.2 km/h 76 % 0.0 mm 0 W/m2
21:25 10.9 °C 6.9 °C 1026.0 hPa Calm   3.2 km/h 76 % 0.0 mm 0 W/m2
21:30 10.6 °C 6.9 °C 1026.0 hPa Calm   1.6 km/h 78 % 0.0 mm 0 W/m2
21:40 9.9 °C 6.8 °C 1026.0 hPa Calm   4.8 km/h 81 % 0.0 mm 0 W/m2
21:45 9.8 °C 6.8 °C 1026.0 hPa Calm   3.2 km/h 82 % 0.0 mm 0 W/m2
21:50 10.2 °C 7.4 °C 1026.0 hPa Calm   3.2 km/h 83 % 0.0 mm 0 W/m2
21:55 10.0 °C 7.2 °C 1026.0 hPa NW 1.6 km/h 3.2 km/h 83 % 0.0 mm 0 W/m2
22:00 10.0 °C 7.4 °C 1026.0 hPa Calm   3.2 km/h 84 % 0.0 mm 0 W/m2
22:05 10.0 °C 7.4 °C 1026.0 hPa Calm   3.2 km/h 84 % 0.0 mm 0 W/m2
22:10 9.9 °C 7.5 °C 1026.0 hPa Calm   1.6 km/h 85 % 0.0 mm 0 W/m2
22:15 9.8 °C 7.4 °C 1026.0 hPa Calm   1.6 km/h 85 % 0.0 mm 0 W/m2
22:25 9.4 °C 7.4 °C 1026.0 hPa Calm   4.8 km/h 87 % 0.0 mm 0 W/m2
22:30 9.4 °C 7.3 °C 1026.0 hPa Calm   1.6 km/h 87 % 0.0 mm 0 W/m2
22:35 9.3 °C 7.3 °C 1026.0 hPa NW 1.6 km/h 3.2 km/h 87 % 0.0 mm 0 W/m2
22:40 9.3 °C 7.2 °C 1026.0 hPa Calm   3.2 km/h 87 % 0.0 mm 0 W/m2
22:50 9.0 °C 7.1 °C 1026.0 hPa Calm   4.8 km/h 88 % 0.0 mm 0 W/m2
22:55 9.0 °C 7.1 °C 1026.0 hPa Calm   4.8 km/h 88 % 0.0 mm 0 W/m2
23:00 8.8 °C 7.1 °C 1026.0 hPa Calm   4.8 km/h 89 % 0.0 mm 0 W/m2
23:10 8.9 °C 7.4 °C 1026.0 hPa Calm   4.8 km/h 90 % 0.0 mm 0 W/m2
23:15 9.2 °C 7.6 °C 1026.0 hPa Calm   6.4 km/h 90 % 0.0 mm 0 W/m2
23:20 9.1 °C 7.4 °C 1026.0 hPa North 8.0 km/h 8.0 km/h 89 % 0.0 mm 0 W/m2
23:25 8.9 °C 7.2 °C 1026.0 hPa WNW 3.2 km/h 11.3 km/h 89 % 0.0 mm 0 W/m2
23:30 8.9 °C 7.2 °C 1026.0 hPa Calm   11.3 km/h 89 % 0.0 mm 0 W/m2
23:35 9.0 °C 7.3 °C 1026.0 hPa Calm   4.8 km/h 89 % 0.0 mm 0 W/m2
23:40 8.9 °C 7.2 °C 1026.0 hPa NNW 1.6 km/h 8.0 km/h 89 % 0.0 mm 0 W/m2
23:45 8.9 °C 7.2 °C 1025.6 hPa Calm   8.0 km/h 89 % 0.0 mm 0 W/m2
23:50 8.8 °C 7.3 °C 1026.0 hPa NNW 1.6 km/h 3.2 km/h 90 % 0.0 mm 0 W/m2
23:55 8.7 °C 7.2 °C 1026.0 hPa North 1.6 km/h 8.0 km/h 90 % 0.0 mm 0 W/m2
Avec l'autorisation de Weather Underground - 1.5 mb